Boutte, Louisiana
Current Conditions -  °F | °C
As of 10:20 PM on Thursday 18 Dec 2014 (Local Time) from KMSY Reporting Station
Overcast Overcast  
Wind Chill: 58°   Ceiling: 2200
Heat Index: 58°   Visibility: 10mi
Dew Point: 52°   Wind: 5mph
Humidity: 81%   Direction: 70°ENE
Pressure: 30.14"   Gusts: NA
Location:  29.9°N, 90.39°W
Report Text: KMSY 190420Z 07004KT 10SM BKN022 BKN070 OVC110 14/11 A3014 RMK AO2 RAE0357 P0000 T01440111
Loading
Personal Weather Stations






























Interactive Weather Map New forecast layout! Learn more

10-Day Weather Forecast

Advertisements
Track Severe Weather on mobile